Aviation Digital Data Service (ADDS)

Output produced by METARs form (0920 UTC 24 October 2017)
found at http://aviationweather.gov/adds/metars/
 
KBUF 240901Z 2409/2506 20012KT P6SM BKN035 
     FM241600 21012G18KT P6SM BKN035 
     FM241900 21013G20KT P6SM SCT035 
     FM242200 21013KT P6SM SCT035 
     FM250100 21013KT P6SM FEW040